sensor_id;sensor_type;location;lat;lon;timestamp;P1;durP1;ratioP1;P2;durP2;ratioP2
22094;SDS011;24083;55.670;37.568;2023-09-19T00:00:40;26.55;;;13.02;;
22094;SDS011;24083;55.670;37.568;2023-09-19T00:03:08;26.75;;;13.10;;
22094;SDS011;24083;55.670;37.568;2023-09-19T00:05:36;26.33;;;13.35;;
22094;SDS011;24083;55.670;37.568;2023-09-19T00:08:14;23.40;;;13.57;;
22094;SDS011;24083;55.670;37.568;2023-09-19T00:10:42;27.38;;;14.18;;
22094;SDS011;24083;55.670;37.568;2023-09-19T00:13:09;28.20;;;13.73;;
22094;SDS011;24083;55.670;37.568;2023-09-19T00:15:41;28.17;;;14.25;;
22094;SDS011;24083;55.670;37.568;2023-09-19T00:18:09;30.83;;;14.18;;
22094;SDS011;24083;55.670;37.568;2023-09-19T00:23:42;27.88;;;15.32;;
22094;SDS011;24083;55.670;37.568;2023-09-19T00:26:11;28.25;;;15.95;;
22094;SDS011;24083;55.670;37.568;2023-09-19T00:28:39;32.25;;;16.58;;
22094;SDS011;24083;55.670;37.568;2023-09-19T00:31:15;31.85;;;16.88;;
22094;SDS011;24083;55.670;37.568;2023-09-19T00:33:44;30.98;;;17.05;;
22094;SDS011;24083;55.670;37.568;2023-09-19T00:36:14;35.97;;;17.90;;
22094;SDS011;24083;55.670;37.568;2023-09-19T00:42:25;30.00;;;17.98;;
22094;SDS011;24083;55.670;37.568;2023-09-19T00:44:54;38.00;;;19.30;;
22094;SDS011;24083;55.670;37.568;2023-09-19T00:47:27;43.47;;;20.98;;
22094;SDS011;24083;55.670;37.568;2023-09-19T00:49:55;39.95;;;20.40;;
22094;SDS011;24083;55.670;37.568;2023-09-19T00:52:22;42.08;;;24.08;;
22094;SDS011;24083;55.670;37.568;2023-09-19T00:57:36;39.55;;;23.08;;
22094;SDS011;24083;55.670;37.568;2023-09-19T01:03:15;37.78;;;24.55;;
22094;SDS011;24083;55.670;37.568;2023-09-19T01:05:41;43.70;;;24.67;;
22094;SDS011;24083;55.670;37.568;2023-09-19T01:08:22;41.85;;;25.50;;
22094;SDS011;24083;55.670;37.568;2023-09-19T01:16:40;44.70;;;27.40;;
22094;SDS011;24083;55.670;37.568;2023-09-19T01:30:35;50.90;;;31.90;;
22094;SDS011;24083;55.670;37.568;2023-09-19T01:33:06;57.17;;;33.55;;
22094;SDS011;24083;55.670;37.568;2023-09-19T01:35:33;57.80;;;33.58;;
22094;SDS011;24083;55.670;37.568;2023-09-19T01:38:01;57.83;;;35.22;;
22094;SDS011;24083;55.670;37.568;2023-09-19T01:43:26;53.03;;;35.88;;
22094;SDS011;24083;55.670;37.568;2023-09-19T01:46:21;57.22;;;35.75;;
22094;SDS011;24083;55.670;37.568;2023-09-19T02:00:13;58.97;;;36.67;;
22094;SDS011;24083;55.670;37.568;2023-09-19T02:02:40;60.28;;;36.53;;
22094;SDS011;24083;55.670;37.568;2023-09-19T02:05:10;67.75;;;37.95;;
22094;SDS011;24083;55.670;37.568;2023-09-19T02:10:31;64.82;;;37.80;;
22094;SDS011;24083;55.670;37.568;2023-09-19T02:13:00;60.88;;;36.92;;
22094;SDS011;24083;55.670;37.568;2023-09-19T02:15:30;65.97;;;38.97;;
22094;SDS011;24083;55.670;37.568;2023-09-19T02:20:56;65.53;;;38.30;;
22094;SDS011;24083;55.670;37.568;2023-09-19T02:23:46;70.18;;;38.85;;
22094;SDS011;24083;55.670;37.568;2023-09-19T02:26:13;65.27;;;38.93;;
22094;SDS011;24083;55.670;37.568;2023-09-19T02:28:41;66.78;;;39.35;;
22094;SDS011;24083;55.670;37.568;2023-09-19T02:31:09;70.90;;;38.33;;
22094;SDS011;24083;55.670;37.568;2023-09-19T02:33:43;73.10;;;39.33;;
22094;SDS011;24083;55.670;37.568;2023-09-19T02:36:10;72.75;;;38.85;;
22094;SDS011;24083;55.670;37.568;2023-09-19T02:38:49;71.50;;;38.45;;
22094;SDS011;24083;55.670;37.568;2023-09-19T02:54:11;75.05;;;39.97;;
22094;SDS011;24083;55.670;37.568;2023-09-19T02:56:37;76.78;;;38.80;;
22094;SDS011;24083;55.670;37.568;2023-09-19T03:02:08;75.93;;;39.30;;
22094;SDS011;24083;55.670;37.568;2023-09-19T03:04:49;81.10;;;39.47;;
22094;SDS011;24083;55.670;37.568;2023-09-19T03:07:17;73.82;;;39.35;;
22094;SDS011;24083;55.670;37.568;2023-09-19T03:09:50;77.53;;;39.30;;
22094;SDS011;24083;55.670;37.568;2023-09-19T03:12:20;77.93;;;39.33;;
22094;SDS011;24083;55.670;37.568;2023-09-19T03:14:47;78.65;;;39.33;;
22094;SDS011;24083;55.670;37.568;2023-09-19T03:17:15;71.53;;;38.87;;
22094;SDS011;24083;55.670;37.568;2023-09-19T03:22:22;68.03;;;38.55;;
22094;SDS011;24083;55.670;37.568;2023-09-19T03:24:50;70.03;;;37.13;;
22094;SDS011;24083;55.670;37.568;2023-09-19T03:27:20;70.97;;;38.92;;
22094;SDS011;24083;55.670;37.568;2023-09-19T03:32:18;73.40;;;37.85;;
22094;SDS011;24083;55.670;37.568;2023-09-19T03:34:54;73.78;;;36.58;;
22094;SDS011;24083;55.670;37.568;2023-09-19T03:43:58;69.10;;;36.38;;
22094;SDS011;24083;55.670;37.568;2023-09-19T03:52:39;67.03;;;36.08;;
22094;SDS011;24083;55.670;37.568;2023-09-19T03:55:12;62.38;;;35.17;;
22094;SDS011;24083;55.670;37.568;2023-09-19T03:58:03;59.72;;;35.13;;
22094;SDS011;24083;55.670;37.568;2023-09-19T04:00:29;62.90;;;35.08;;
22094;SDS011;24083;55.670;37.568;2023-09-19T04:09:00;63.75;;;35.33;;
22094;SDS011;24083;55.670;37.568;2023-09-19T04:13:59;68.35;;;36.92;;
22094;SDS011;24083;55.670;37.568;2023-09-19T04:19:12;64.32;;;36.42;;
22094;SDS011;24083;55.670;37.568;2023-09-19T04:21:39;60.45;;;35.15;;
22094;SDS011;24083;55.670;37.568;2023-09-19T04:24:05;60.40;;;34.90;;
22094;SDS011;24083;55.670;37.568;2023-09-19T04:26:46;60.25;;;33.53;;
22094;SDS011;24083;55.670;37.568;2023-09-19T04:29:12;56.80;;;31.58;;
22094;SDS011;24083;55.670;37.568;2023-09-19T04:31:48;55.92;;;31.00;;
22094;SDS011;24083;55.670;37.568;2023-09-19T04:34:14;53.20;;;30.23;;
22094;SDS011;24083;55.670;37.568;2023-09-19T04:37:10;48.13;;;28.33;;
22094;SDS011;24083;55.670;37.568;2023-09-19T04:39:37;46.83;;;26.75;;
22094;SDS011;24083;55.670;37.568;2023-09-19T04:42:10;47.10;;;25.48;;
22094;SDS011;24083;55.670;37.568;2023-09-19T04:44:40;38.25;;;23.73;;
22094;SDS011;24083;55.670;37.568;2023-09-19T04:47:17;42.53;;;24.83;;
22094;SDS011;24083;55.670;37.568;2023-09-19T04:49:42;37.83;;;23.17;;
22094;SDS011;24083;55.670;37.568;2023-09-19T04:52:31;33.15;;;22.02;;
22094;SDS011;24083;55.670;37.568;2023-09-19T04:57:55;34.03;;;21.50;;
22094;SDS011;24083;55.670;37.568;2023-09-19T05:00:21;32.58;;;20.85;;
22094;SDS011;24083;55.670;37.568;2023-09-19T05:02:58;31.35;;;21.00;;
22094;SDS011;24083;55.670;37.568;2023-09-19T05:05:35;38.15;;;21.20;;
22094;SDS011;24083;55.670;37.568;2023-09-19T05:08:01;31.73;;;20.42;;
22094;SDS011;24083;55.670;37.568;2023-09-19T05:10:32;35.45;;;20.67;;
22094;SDS011;24083;55.670;37.568;2023-09-19T05:16:17;32.83;;;19.90;;
22094;SDS011;24083;55.670;37.568;2023-09-19T05:18:44;33.28;;;20.38;;
22094;SDS011;24083;55.670;37.568;2023-09-19T05:21:11;31.60;;;19.55;;
22094;SDS011;24083;55.670;37.568;2023-09-19T05:23:37;32.27;;;20.43;;
22094;SDS011;24083;55.670;37.568;2023-09-19T05:26:03;33.15;;;20.70;;
22094;SDS011;24083;55.670;37.568;2023-09-19T05:31:25;30.40;;;19.58;;
22094;SDS011;24083;55.670;37.568;2023-09-19T05:33:52;31.55;;;18.27;;
22094;SDS011;24083;55.670;37.568;2023-09-19T05:36:33;29.92;;;18.90;;
22094;SDS011;24083;55.670;37.568;2023-09-19T05:39:01;26.88;;;17.38;;
22094;SDS011;24083;55.670;37.568;2023-09-19T05:43:55;27.13;;;17.33;;
22094;SDS011;24083;55.670;37.568;2023-09-19T05:46:25;25.73;;;15.95;;
22094;SDS011;24083;55.670;37.568;2023-09-19T05:48:56;25.70;;;17.35;;
22094;SDS011;24083;55.670;37.568;2023-09-19T05:51:24;25.73;;;16.73;;
22094;SDS011;24083;55.670;37.568;2023-09-19T05:53:51;25.08;;;15.93;;
22094;SDS011;24083;55.670;37.568;2023-09-19T05:56:17;27.13;;;15.82;;
22094;SDS011;24083;55.670;37.568;2023-09-19T05:58:44;22.80;;;14.95;;
22094;SDS011;24083;55.670;37.568;2023-09-19T06:01:15;22.65;;;14.75;;
22094;SDS011;24083;55.670;37.568;2023-09-19T06:03:41;22.92;;;14.32;;
22094;SDS011;24083;55.670;37.568;2023-09-19T06:06:12;22.48;;;13.63;;
22094;SDS011;24083;55.670;37.568;2023-09-19T06:08:39;24.30;;;14.48;;
22094;SDS011;24083;55.670;37.568;2023-09-19T06:11:07;22.50;;;14.13;;
22094;SDS011;24083;55.670;37.568;2023-09-19T06:13:33;24.25;;;14.32;;
22094;SDS011;24083;55.670;37.568;2023-09-19T06:15:59;25.67;;;14.90;;
22094;SDS011;24083;55.670;37.568;2023-09-19T06:18:29;24.27;;;14.80;;
22094;SDS011;24083;55.670;37.568;2023-09-19T06:20:56;22.83;;;13.90;;
22094;SDS011;24083;55.670;37.568;2023-09-19T06:23:24;23.02;;;14.20;;
22094;SDS011;24083;55.670;37.568;2023-09-19T06:25:52;20.52;;;14.13;;
22094;SDS011;24083;55.670;37.568;2023-09-19T06:28:20;26.88;;;13.95;;
22094;SDS011;24083;55.670;37.568;2023-09-19T06:30:51;22.17;;;14.55;;
22094;SDS011;24083;55.670;37.568;2023-09-19T06:33:18;26.42;;;14.88;;
22094;SDS011;24083;55.670;37.568;2023-09-19T06:35:45;23.75;;;14.48;;
22094;SDS011;24083;55.670;37.568;2023-09-19T06:38:12;22.75;;;14.57;;
22094;SDS011;24083;55.670;37.568;2023-09-19T06:40:39;18.48;;;13.95;;
22094;SDS011;24083;55.670;37.568;2023-09-19T06:43:09;21.98;;;14.05;;
22094;SDS011;24083;55.670;37.568;2023-09-19T06:45:43;19.45;;;14.52;;
22094;SDS011;24083;55.670;37.568;2023-09-19T06:48:12;18.88;;;14.48;;
22094;SDS011;24083;55.670;37.568;2023-09-19T06:50:41;21.63;;;14.18;;
22094;SDS011;24083;55.670;37.568;2023-09-19T06:53:10;18.98;;;14.77;;
22094;SDS011;24083;55.670;37.568;2023-09-19T06:55:40;22.58;;;15.05;;
22094;SDS011;24083;55.670;37.568;2023-09-19T06:58:10;21.45;;;14.73;;
22094;SDS011;24083;55.670;37.568;2023-09-19T07:03:27;21.10;;;15.45;;
22094;SDS011;24083;55.670;37.568;2023-09-19T07:05:54;23.38;;;15.70;;
22094;SDS011;24083;55.670;37.568;2023-09-19T07:08:31;23.13;;;15.45;;
22094;SDS011;24083;55.670;37.568;2023-09-19T07:13:58;21.35;;;14.98;;
22094;SDS011;24083;55.670;37.568;2023-09-19T07:30:39;22.52;;;15.70;;
22094;SDS011;24083;55.670;37.568;2023-09-19T07:33:10;25.52;;;16.77;;
22094;SDS011;24083;55.670;37.568;2023-09-19T07:35:37;25.38;;;15.50;;
22094;SDS011;24083;55.670;37.568;2023-09-19T07:38:19;26.50;;;14.88;;
22094;SDS011;24083;55.670;37.568;2023-09-19T07:40:48;23.27;;;14.15;;
22094;SDS011;24083;55.670;37.568;2023-09-19T07:43:15;26.58;;;15.38;;
22094;SDS011;24083;55.670;37.568;2023-09-19T07:45:41;22.58;;;15.38;;
22094;SDS011;24083;55.670;37.568;2023-09-19T07:48:06;25.27;;;15.13;;
22094;SDS011;24083;55.670;37.568;2023-09-19T07:51:23;30.98;;;15.02;;
22094;SDS011;24083;55.670;37.568;2023-09-19T07:53:50;22.92;;;15.35;;
22094;SDS011;24083;55.670;37.568;2023-09-19T08:00:04;21.63;;;14.75;;
22094;SDS011;24083;55.670;37.568;2023-09-19T08:02:37;24.65;;;14.38;;
22094;SDS011;24083;55.670;37.568;2023-09-19T08:05:06;30.35;;;14.20;;
22094;SDS011;24083;55.670;37.568;2023-09-19T08:07:38;23.58;;;14.82;;
22094;SDS011;24083;55.670;37.568;2023-09-19T08:10:05;20.73;;;13.98;;
22094;SDS011;24083;55.670;37.568;2023-09-19T08:12:39;24.08;;;13.75;;
22094;SDS011;24083;55.670;37.568;2023-09-19T08:15:48;30.55;;;14.82;;
22094;SDS011;24083;55.670;37.568;2023-09-19T08:18:15;24.23;;;14.07;;
22094;SDS011;24083;55.670;37.568;2023-09-19T08:20:42;23.60;;;14.00;;
22094;SDS011;24083;55.670;37.568;2023-09-19T08:23:11;24.42;;;14.10;;
22094;SDS011;24083;55.670;37.568;2023-09-19T08:25:44;18.42;;;13.07;;
22094;SDS011;24083;55.670;37.568;2023-09-19T08:28:13;27.42;;;14.50;;
22094;SDS011;24083;55.670;37.568;2023-09-19T08:33:22;20.45;;;13.25;;
22094;SDS011;24083;55.670;37.568;2023-09-19T08:36:03;22.08;;;13.52;;
22094;SDS011;24083;55.670;37.568;2023-09-19T08:38:33;23.13;;;13.75;;
22094;SDS011;24083;55.670;37.568;2023-09-19T08:40:59;20.33;;;13.98;;
22094;SDS011;24083;55.670;37.568;2023-09-19T08:43:26;20.48;;;13.45;;
22094;SDS011;24083;55.670;37.568;2023-09-19T08:45:58;19.27;;;12.98;;
22094;SDS011;24083;55.670;37.568;2023-09-19T08:51:27;19.27;;;13.43;;
22094;SDS011;24083;55.670;37.568;2023-09-19T08:54:06;24.67;;;13.13;;
22094;SDS011;24083;55.670;37.568;2023-09-19T08:56:32;27.80;;;13.00;;
22094;SDS011;24083;55.670;37.568;2023-09-19T08:59:00;22.33;;;13.70;;
22094;SDS011;24083;55.670;37.568;2023-09-19T09:01:27;21.80;;;13.32;;
22094;SDS011;24083;55.670;37.568;2023-09-19T09:09:20;24.70;;;14.07;;
22094;SDS011;24083;55.670;37.568;2023-09-19T09:11:48;22.35;;;14.00;;
22094;SDS011;24083;55.670;37.568;2023-09-19T09:17:09;22.10;;;13.70;;
22094;SDS011;24083;55.670;37.568;2023-09-19T09:22:06;25.58;;;14.05;;
22094;SDS011;24083;55.670;37.568;2023-09-19T09:24:32;23.42;;;14.25;;
22094;SDS011;24083;55.670;37.568;2023-09-19T09:27:04;22.95;;;14.10;;
22094;SDS011;24083;55.670;37.568;2023-09-19T09:29:43;24.73;;;14.95;;
22094;SDS011;24083;55.670;37.568;2023-09-19T09:32:24;25.75;;;14.65;;
22094;SDS011;24083;55.670;37.568;2023-09-19T09:34:54;23.13;;;13.90;;
22094;SDS011;24083;55.670;37.568;2023-09-19T09:43:26;25.27;;;13.95;;
22094;SDS011;24083;55.670;37.568;2023-09-19T09:46:09;24.25;;;13.35;;
22094;SDS011;24083;55.670;37.568;2023-09-19T09:49:02;21.80;;;13.48;;
22094;SDS011;24083;55.670;37.568;2023-09-19T09:54:34;25.08;;;13.27;;
22094;SDS011;24083;55.670;37.568;2023-09-19T09:57:12;23.63;;;13.55;;
22094;SDS011;24083;55.670;37.568;2023-09-19T10:02:43;25.25;;;13.55;;
22094;SDS011;24083;55.670;37.568;2023-09-19T10:05:44;25.23;;;13.32;;
22094;SDS011;24083;55.670;37.568;2023-09-19T10:13:57;20.98;;;13.05;;
22094;SDS011;24083;55.670;37.568;2023-09-19T10:16:23;20.47;;;12.77;;
22094;SDS011;24083;55.670;37.568;2023-09-19T10:18:50;19.50;;;13.02;;
22094;SDS011;24083;55.670;37.568;2023-09-19T10:21:20;23.65;;;13.40;;
22094;SDS011;24083;55.670;37.568;2023-09-19T10:26:17;26.90;;;13.32;;
22094;SDS011;24083;55.670;37.568;2023-09-19T10:28:46;22.75;;;12.27;;
22094;SDS011;24083;55.670;37.568;2023-09-19T10:31:16;23.65;;;12.70;;
22094;SDS011;24083;55.670;37.568;2023-09-19T10:36:32;19.17;;;12.35;;
22094;SDS011;24083;55.670;37.568;2023-09-19T10:39:05;20.15;;;12.73;;
22094;SDS011;24083;55.670;37.568;2023-09-19T10:41:32;23.27;;;12.73;;
22094;SDS011;24083;55.670;37.568;2023-09-19T10:44:34;22.13;;;12.57;;
22094;SDS011;24083;55.670;37.568;2023-09-19T10:47:04;19.83;;;12.15;;
22094;SDS011;24083;55.670;37.568;2023-09-19T10:49:33;20.27;;;12.57;;
22094;SDS011;24083;55.670;37.568;2023-09-19T10:52:02;25.25;;;12.65;;
22094;SDS011;24083;55.670;37.568;2023-09-19T10:56:58;19.42;;;12.18;;
22094;SDS011;24083;55.670;37.568;2023-09-19T10:59:25;20.08;;;12.77;;
22094;SDS011;24083;55.670;37.568;2023-09-19T11:02:16;26.90;;;12.45;;
22094;SDS011;24083;55.670;37.568;2023-09-19T11:04:44;22.48;;;13.00;;
22094;SDS011;24083;55.670;37.568;2023-09-19T11:07:15;23.52;;;12.73;;
22094;SDS011;24083;55.670;37.568;2023-09-19T11:12:12;21.33;;;12.20;;
22094;SDS011;24083;55.670;37.568;2023-09-19T11:14:39;20.58;;;12.20;;
22094;SDS011;24083;55.670;37.568;2023-09-19T11:30:32;17.40;;;10.45;;
22094;SDS011;24083;55.670;37.568;2023-09-19T11:50:34;14.45;;;9.55;;
22094;SDS011;24083;55.670;37.568;2023-09-19T11:53:05;16.10;;;8.80;;
22094;SDS011;24083;55.670;37.568;2023-09-19T11:55:32;14.55;;;8.82;;
22094;SDS011;24083;55.670;37.568;2023-09-19T12:01:29;18.63;;;9.52;;
22094;SDS011;24083;55.670;37.568;2023-09-19T12:06:56;17.10;;;9.05;;
22094;SDS011;24083;55.670;37.568;2023-09-19T12:09:26;13.77;;;8.77;;
22094;SDS011;24083;55.670;37.568;2023-09-19T12:14:48;19.35;;;9.40;;
22094;SDS011;24083;55.670;37.568;2023-09-19T12:20:44;14.13;;;8.60;;
22094;SDS011;24083;55.670;37.568;2023-09-19T12:23:16;14.75;;;8.15;;
22094;SDS011;24083;55.670;37.568;2023-09-19T12:28:48;14.52;;;7.82;;
22094;SDS011;24083;55.670;37.568;2023-09-19T12:31:21;15.82;;;8.32;;
22094;SDS011;24083;55.670;37.568;2023-09-19T12:33:52;13.90;;;7.97;;
22094;SDS011;24083;55.670;37.568;2023-09-19T12:36:23;16.38;;;7.95;;
22094;SDS011;24083;55.670;37.568;2023-09-19T12:38:52;16.73;;;7.88;;
22094;SDS011;24083;55.670;37.568;2023-09-19T12:41:28;14.38;;;7.43;;
22094;SDS011;24083;55.670;37.568;2023-09-19T12:43:56;15.57;;;6.93;;
22094;SDS011;24083;55.670;37.568;2023-09-19T12:46:23;10.75;;;7.28;;
22094;SDS011;24083;55.670;37.568;2023-09-19T12:49:19;10.32;;;6.55;;
22094;SDS011;24083;55.670;37.568;2023-09-19T12:52:10;15.32;;;6.80;;
22094;SDS011;24083;55.670;37.568;2023-09-19T12:54:40;13.85;;;7.10;;
22094;SDS011;24083;55.670;37.568;2023-09-19T12:57:09;13.85;;;6.82;;
22094;SDS011;24083;55.670;37.568;2023-09-19T13:00:37;9.90;;;5.97;;
22094;SDS011;24083;55.670;37.568;2023-09-19T13:05:48;7.78;;;4.95;;
22094;SDS011;24083;55.670;37.568;2023-09-19T13:08:19;12.00;;;5.78;;
22094;SDS011;24083;55.670;37.568;2023-09-19T13:13:27;11.98;;;5.47;;
22094;SDS011;24083;55.670;37.568;2023-09-19T13:19:34;10.02;;;5.50;;
22094;SDS011;24083;55.670;37.568;2023-09-19T13:22:00;10.13;;;5.32;;
22094;SDS011;24083;55.670;37.568;2023-09-19T13:24:29;7.10;;;5.22;;
22094;SDS011;24083;55.670;37.568;2023-09-19T13:26:58;8.05;;;5.30;;
22094;SDS011;24083;55.670;37.568;2023-09-19T13:29:26;8.87;;;5.73;;
22094;SDS011;24083;55.670;37.568;2023-09-19T13:31:53;12.57;;;6.22;;
22094;SDS011;24083;55.670;37.568;2023-09-19T13:34:24;11.27;;;6.25;;
22094;SDS011;24083;55.670;37.568;2023-09-19T13:40:04;10.02;;;6.53;;
22094;SDS011;24083;55.670;37.568;2023-09-19T13:42:31;11.75;;;6.18;;
22094;SDS011;24083;55.670;37.568;2023-09-19T13:44:59;10.07;;;6.63;;
22094;SDS011;24083;55.670;37.568;2023-09-19T13:47:25;12.10;;;6.68;;
22094;SDS011;24083;55.670;37.568;2023-09-19T13:49:57;13.32;;;6.95;;
22094;SDS011;24083;55.670;37.568;2023-09-19T13:52:35;12.73;;;7.28;;
22094;SDS011;24083;55.670;37.568;2023-09-19T13:55:01;11.73;;;7.07;;
22094;SDS011;24083;55.670;37.568;2023-09-19T13:57:27;13.90;;;7.37;;
22094;SDS011;24083;55.670;37.568;2023-09-19T14:00:08;14.52;;;7.93;;
22094;SDS011;24083;55.670;37.568;2023-09-19T14:05:32;17.58;;;9.15;;
22094;SDS011;24083;55.670;37.568;2023-09-19T14:07:58;15.02;;;8.68;;
22094;SDS011;24083;55.670;37.568;2023-09-19T14:10:28;15.27;;;8.45;;
22094;SDS011;24083;55.670;37.568;2023-09-19T14:12:56;15.27;;;8.27;;
22094;SDS011;24083;55.670;37.568;2023-09-19T14:18:16;20.88;;;8.82;;
22094;SDS011;24083;55.670;37.568;2023-09-19T14:21:04;13.65;;;8.57;;
22094;SDS011;24083;55.670;37.568;2023-09-19T14:26:26;15.20;;;8.23;;
22094;SDS011;24083;55.670;37.568;2023-09-19T14:28:53;15.73;;;8.32;;
22094;SDS011;24083;55.670;37.568;2023-09-19T14:31:36;23.27;;;8.40;;
22094;SDS011;24083;55.670;37.568;2023-09-19T14:52:21;15.50;;;9.38;;
22094;SDS011;24083;55.670;37.568;2023-09-19T14:54:49;13.95;;;7.53;;
22094;SDS011;24083;55.670;37.568;2023-09-19T14:57:15;14.82;;;7.50;;
22094;SDS011;24083;55.670;37.568;2023-09-19T14:59:44;15.20;;;7.47;;
22094;SDS011;24083;55.670;37.568;2023-09-19T15:02:14;11.60;;;7.45;;
22094;SDS011;24083;55.670;37.568;2023-09-19T15:04:45;11.32;;;7.35;;
22094;SDS011;24083;55.670;37.568;2023-09-19T15:07:33;14.82;;;7.30;;
22094;SDS011;24083;55.670;37.568;2023-09-19T15:18:48;13.20;;;7.00;;
22094;SDS011;24083;55.670;37.568;2023-09-19T15:21:16;12.48;;;6.70;;
22094;SDS011;24083;55.670;37.568;2023-09-19T15:26:47;12.93;;;6.45;;
22094;SDS011;24083;55.670;37.568;2023-09-19T15:29:15;11.52;;;6.65;;
22094;SDS011;24083;55.670;37.568;2023-09-19T15:31:42;11.38;;;6.80;;
22094;SDS011;24083;55.670;37.568;2023-09-19T15:34:25;11.25;;;6.80;;
22094;SDS011;24083;55.670;37.568;2023-09-19T15:43:46;17.80;;;6.90;;
22094;SDS011;24083;55.670;37.568;2023-09-19T15:47:09;12.50;;;6.75;;
22094;SDS011;24083;55.670;37.568;2023-09-19T15:52:27;13.43;;;6.95;;
22094;SDS011;24083;55.670;37.568;2023-09-19T15:54:59;15.63;;;7.20;;
22094;SDS011;24083;55.670;37.568;2023-09-19T15:57:28;16.38;;;8.40;;
22094;SDS011;24083;55.670;37.568;2023-09-19T15:59:55;15.93;;;7.38;;
22094;SDS011;24083;55.670;37.568;2023-09-19T16:02:20;14.75;;;7.60;;
22094;SDS011;24083;55.670;37.568;2023-09-19T16:04:47;15.25;;;7.22;;
22094;SDS011;24083;55.670;37.568;2023-09-19T16:11:01;19.23;;;9.07;;
22094;SDS011;24083;55.670;37.568;2023-09-19T16:13:32;23.58;;;8.68;;
22094;SDS011;24083;55.670;37.568;2023-09-19T16:19:51;30.35;;;9.82;;
22094;SDS011;24083;55.670;37.568;2023-09-19T16:22:24;24.20;;;9.50;;
22094;SDS011;24083;55.670;37.568;2023-09-19T16:27:56;27.27;;;10.20;;
22094;SDS011;24083;55.670;37.568;2023-09-19T16:30:21;26.63;;;9.50;;
22094;SDS011;24083;55.670;37.568;2023-09-19T16:35:58;26.98;;;10.80;;
22094;SDS011;24083;55.670;37.568;2023-09-19T16:38:25;27.40;;;11.00;;
22094;SDS011;24083;55.670;37.568;2023-09-19T16:40:56;31.85;;;10.73;;
22094;SDS011;24083;55.670;37.568;2023-09-19T16:43:30;29.90;;;11.07;;
22094;SDS011;24083;55.670;37.568;2023-09-19T16:45:58;26.55;;;10.63;;
22094;SDS011;24083;55.670;37.568;2023-09-19T16:48:25;24.95;;;11.25;;
22094;SDS011;24083;55.670;37.568;2023-09-19T16:56:34;26.30;;;10.80;;
22094;SDS011;24083;55.670;37.568;2023-09-19T16:59:25;23.02;;;11.00;;
22094;SDS011;24083;55.670;37.568;2023-09-19T17:01:51;25.88;;;10.85;;
22094;SDS011;24083;55.670;37.568;2023-09-19T17:04:31;20.90;;;9.97;;
22094;SDS011;24083;55.670;37.568;2023-09-19T17:07:02;31.50;;;10.88;;
22094;SDS011;24083;55.670;37.568;2023-09-19T17:09:36;19.02;;;10.32;;
22094;SDS011;24083;55.670;37.568;2023-09-19T17:12:03;22.40;;;10.07;;
22094;SDS011;24083;55.670;37.568;2023-09-19T17:17:21;21.17;;;9.30;;
22094;SDS011;24083;55.670;37.568;2023-09-19T17:19:50;19.13;;;9.30;;
22094;SDS011;24083;55.670;37.568;2023-09-19T17:22:20;20.30;;;9.57;;
22094;SDS011;24083;55.670;37.568;2023-09-19T17:25:14;15.77;;;9.27;;
22094;SDS011;24083;55.670;37.568;2023-09-19T17:27:40;17.02;;;8.93;;
22094;SDS011;24083;55.670;37.568;2023-09-19T17:30:08;17.48;;;9.18;;
22094;SDS011;24083;55.670;37.568;2023-09-19T17:35:23;18.17;;;8.80;;
22094;SDS011;24083;55.670;37.568;2023-09-19T17:37:53;13.02;;;8.90;;
22094;SDS011;24083;55.670;37.568;2023-09-19T17:40:19;14.80;;;9.05;;
22094;SDS011;24083;55.670;37.568;2023-09-19T17:42:45;13.57;;;8.57;;
22094;SDS011;24083;55.670;37.568;2023-09-19T17:45:33;13.25;;;9.00;;
22094;SDS011;24083;55.670;37.568;2023-09-19T17:48:03;19.45;;;9.07;;
22094;SDS011;24083;55.670;37.568;2023-09-19T17:53:23;12.25;;;8.52;;
22094;SDS011;24083;55.670;37.568;2023-09-19T17:55:50;14.80;;;8.85;;
22094;SDS011;24083;55.670;37.568;2023-09-19T17:58:16;16.17;;;9.32;;
22094;SDS011;24083;55.670;37.568;2023-09-19T18:00:48;12.75;;;8.55;;
22094;SDS011;24083;55.670;37.568;2023-09-19T18:03:15;18.45;;;9.10;;
22094;SDS011;24083;55.670;37.568;2023-09-19T18:05:45;16.50;;;9.23;;
22094;SDS011;24083;55.670;37.568;2023-09-19T18:08:19;19.42;;;9.95;;
22094;SDS011;24083;55.670;37.568;2023-09-19T18:10:48;14.88;;;9.02;;
22094;SDS011;24083;55.670;37.568;2023-09-19T18:13:16;16.70;;;9.52;;
22094;SDS011;24083;55.670;37.568;2023-09-19T18:15:42;14.57;;;8.95;;
22094;SDS011;24083;55.670;37.568;2023-09-19T18:21:09;14.73;;;9.18;;
22094;SDS011;24083;55.670;37.568;2023-09-19T18:26:07;14.63;;;9.07;;
22094;SDS011;24083;55.670;37.568;2023-09-19T18:28:38;13.45;;;9.50;;
22094;SDS011;24083;55.670;37.568;2023-09-19T18:36:50;18.60;;;10.18;;
22094;SDS011;24083;55.670;37.568;2023-09-19T18:39:15;16.23;;;9.73;;
22094;SDS011;24083;55.670;37.568;2023-09-19T18:41:45;18.98;;;9.93;;
22094;SDS011;24083;55.670;37.568;2023-09-19T18:44:14;18.40;;;9.55;;
22094;SDS011;24083;55.670;37.568;2023-09-19T18:46:41;19.38;;;9.85;;
22094;SDS011;24083;55.670;37.568;2023-09-19T18:49:08;17.13;;;9.70;;
22094;SDS011;24083;55.670;37.568;2023-09-19T18:51:34;16.48;;;10.00;;
22094;SDS011;24083;55.670;37.568;2023-09-19T18:54:00;17.10;;;9.77;;
22094;SDS011;24083;55.670;37.568;2023-09-19T18:56:27;17.65;;;9.95;;
22094;SDS011;24083;55.670;37.568;2023-09-19T18:58:53;16.10;;;9.95;;
22094;SDS011;24083;55.670;37.568;2023-09-19T19:01:18;16.98;;;10.05;;
22094;SDS011;24083;55.670;37.568;2023-09-19T19:03:44;18.98;;;10.48;;
22094;SDS011;24083;55.670;37.568;2023-09-19T19:06:12;17.30;;;10.05;;
22094;SDS011;24083;55.670;37.568;2023-09-19T19:08:42;17.73;;;9.80;;
22094;SDS011;24083;55.670;37.568;2023-09-19T19:14:54;17.88;;;9.63;;
22094;SDS011;24083;55.670;37.568;2023-09-19T19:17:23;19.02;;;10.10;;
22094;SDS011;24083;55.670;37.568;2023-09-19T19:25:23;16.48;;;10.25;;
22094;SDS011;24083;55.670;37.568;2023-09-19T19:27:58;17.75;;;9.98;;
22094;SDS011;24083;55.670;37.568;2023-09-19T19:36:40;16.00;;;10.40;;
22094;SDS011;24083;55.670;37.568;2023-09-19T19:39:18;13.43;;;9.43;;
22094;SDS011;24083;55.670;37.568;2023-09-19T19:41:43;14.23;;;9.37;;
22094;SDS011;24083;55.670;37.568;2023-09-19T19:44:15;14.50;;;8.82;;
22094;SDS011;24083;55.670;37.568;2023-09-19T19:46:41;15.20;;;9.10;;
22094;SDS011;24083;55.670;37.568;2023-09-19T19:49:07;16.00;;;9.60;;
22094;SDS011;24083;55.670;37.568;2023-09-19T19:51:34;15.77;;;9.52;;
22094;SDS011;24083;55.670;37.568;2023-09-19T19:54:04;15.00;;;8.85;;
22094;SDS011;24083;55.670;37.568;2023-09-19T19:56:31;17.10;;;9.05;;
22094;SDS011;24083;55.670;37.568;2023-09-19T19:59:00;13.88;;;7.80;;
22094;SDS011;24083;55.670;37.568;2023-09-19T20:01:26;11.48;;;5.47;;
22094;SDS011;24083;55.670;37.568;2023-09-19T20:04:10;14.05;;;7.43;;
22094;SDS011;24083;55.670;37.568;2023-09-19T20:06:46;12.05;;;8.10;;
22094;SDS011;24083;55.670;37.568;2023-09-19T20:09:14;12.30;;;7.25;;
22094;SDS011;24083;55.670;37.568;2023-09-19T20:11:41;14.90;;;8.30;;